Time;durP1;ratioP1;P1;durP2;ratioP2;P2;SDS_P1;SDS_P2;PMS_P1;PMS_P2;Temp;Humidity;BMP_temperature;BMP_pressure;BME280_temperature;BME280_humidity;BME280_pressure;Samples;Min_cycle;Max_cycle;Signal;HPM_P1;HPM_P2
2022/04/28 00:00:09;;;;;;;2.37;2.27;;;;;;;;;;4951712;29;20231;-59
2022/04/28 00:02:36;;;;;;;2.10;2.00;;;;;;;;;;4951086;28;20952;-59
2022/04/28 00:05:04;;;;;;;2.13;2.03;;;;;;;;;;4948880;29;20231;-59
2022/04/28 00:07:31;;;;;;;2.70;2.60;;;;;;;;;;4951892;29;20289;-59
2022/04/28 00:09:59;;;;;;;2.33;2.23;;;;;;;;;;4951035;29;20294;-59
2022/04/28 00:12:26;;;;;;;2.67;2.53;;;;;;;;;;4951762;28;20211;-59
2022/04/28 00:14:53;;;;;;;3.10;2.50;;;;;;;;;;4951648;29;20596;-59
2022/04/28 00:17:20;;;;;;;3.03;2.83;;;;;;;;;;4951538;29;20238;-59
2022/04/28 00:19:47;;;;;;;2.60;2.50;;;;;;;;;;4939695;29;20283;-59
2022/04/28 00:22:16;;;;;;;3.20;3.00;;;;;;;;;;4947244;29;20207;-59
2022/04/28 00:24:43;;;;;;;2.97;2.77;;;;;;;;;;4951865;29;20269;-59
2022/04/28 00:27:12;;;;;;;2.97;2.77;;;;;;;;;;4951091;29;20214;-59
2022/04/28 00:29:39;;;;;;;2.90;2.70;;;;;;;;;;4950866;29;20199;-59
2022/04/28 00:32:06;;;;;;;2.93;2.73;;;;;;;;;;4951281;28;20863;-59
2022/04/28 00:34:33;;;;;;;3.30;3.10;;;;;;;;;;4951471;29;20215;-59
2022/04/28 00:37:00;;;;;;;4.87;2.90;;;;;;;;;;4950965;29;20274;-61
2022/04/28 00:39:28;;;;;;;3.03;2.83;;;;;;;;;;4951513;29;20236;-59
2022/04/28 00:41:55;;;;;;;3.00;2.80;;;;;;;;;;4950176;29;20211;-59
2022/04/28 00:44:23;;;;;;;2.93;2.83;;;;;;;;;;4951169;29;20630;-59
2022/04/28 00:46:50;;;;;;;3.17;2.87;;;;;;;;;;4950886;29;20210;-59
2022/04/28 00:52:02;;;;;;;3.20;3.00;;;;;;;;;;4950442;29;20237;-59
2022/04/28 00:54:30;;;;;;;3.00;2.80;;;;;;;;;;4950926;29;20340;-59
2022/04/28 00:56:58;;;;;;;2.73;2.63;;;;;;;;;;4950818;29;20270;-59
2022/04/28 00:59:26;;;;;;;3.10;2.90;;;;;;;;;;4950543;29;20649;-59
2022/04/28 01:01:53;;;;;;;2.80;2.70;;;;;;;;;;4948853;29;20215;-60
2022/04/28 01:04:20;;;;;;;3.23;3.03;;;;;;;;;;4950317;29;20203;-59
2022/04/28 01:06:47;;;;;;;3.20;2.90;;;;;;;;;;4950695;29;20230;-59
2022/04/28 01:09:16;;;;;;;2.60;2.50;;;;;;;;;;4950611;29;20282;-58
2022/04/28 01:11:44;;;;;;;4.77;2.70;;;;;;;;;;4944568;29;20214;-59
2022/04/28 01:14:11;;;;;;;3.03;2.83;;;;;;;;;;4950203;28;20909;-58
2022/04/28 01:16:40;;;;;;;2.87;2.67;;;;;;;;;;4950629;28;20214;-58
2022/04/28 01:19:07;;;;;;;3.40;3.20;;;;;;;;;;4950463;29;20235;-59
2022/04/28 01:21:36;;;;;;;3.00;2.90;;;;;;;;;;4950731;29;20211;-59
2022/04/28 01:24:03;;;;;;;3.20;2.73;;;;;;;;;;4950841;28;20282;-58
2022/04/28 01:26:30;;;;;;;2.83;2.73;;;;;;;;;;4951097;29;20303;-59
2022/04/28 01:28:57;;;;;;;4.67;2.73;;;;;;;;;;4949379;29;20225;-59
2022/04/28 01:31:25;;;;;;;8.00;3.27;;;;;;;;;;4949353;28;20555;-59
2022/04/28 01:33:52;;;;;;;2.97;2.77;;;;;;;;;;4949672;29;20211;-59
2022/04/28 01:36:19;;;;;;;3.50;3.30;;;;;;;;;;4949479;28;20690;-59
2022/04/28 01:38:47;;;;;;;3.37;3.07;;;;;;;;;;4949013;29;20199;-59
2022/04/28 01:41:14;;;;;;;3.30;3.10;;;;;;;;;;4948900;29;20222;-58
2022/04/28 01:43:41;;;;;;;2.73;2.63;;;;;;;;;;4949659;29;20211;-59
2022/04/28 01:46:08;;;;;;;3.87;3.20;;;;;;;;;;4949214;29;20215;-59
2022/04/28 01:48:36;;;;;;;3.20;3.00;;;;;;;;;;4948928;29;20274;-59
2022/04/28 01:56:34;;;;;;;5.07;3.67;;;;;;;;;;4949584;29;20213;-59
2022/04/28 01:59:01;;;;;;;6.07;4.43;;;;;;;;;;4945926;29;20266;-59
2022/04/28 02:01:28;;;;;;;3.60;3.40;;;;;;;;;;4947758;28;20729;-59
2022/04/28 02:03:55;;;;;;;5.27;3.70;;;;;;;;;;4949260;28;20615;-60
2022/04/28 02:06:22;;;;;;;4.60;4.20;;;;;;;;;;4948058;28;20381;-59
2022/04/28 02:08:50;;;;;;;4.00;3.57;;;;;;;;;;4948714;29;20235;-59
2022/04/28 02:11:17;;;;;;;4.53;4.13;;;;;;;;;;4949099;29;20203;-59
2022/04/28 02:13:44;;;;;;;4.13;3.50;;;;;;;;;;4946629;28;20241;-60
2022/04/28 02:16:11;;;;;;;3.90;3.63;;;;;;;;;;4949208;28;20231;-59
2022/04/28 02:18:38;;;;;;;4.00;3.57;;;;;;;;;;4949329;28;20235;-59
2022/04/28 02:21:05;;;;;;;4.87;4.37;;;;;;;;;;4948777;29;20222;-59
2022/04/28 02:23:32;;;;;;;3.83;3.53;;;;;;;;;;4949964;28;20285;-59
2022/04/28 02:26:01;;;;;;;4.40;4.00;;;;;;;;;;4949193;28;20207;-59
2022/04/28 02:28:28;;;;;;;4.13;3.70;;;;;;;;;;4953011;29;20214;-59
2022/04/28 02:30:55;;;;;;;5.33;4.23;;;;;;;;;;4953419;29;20913;-60
2022/04/28 02:33:22;;;;;;;4.03;3.73;;;;;;;;;;4953298;28;20910;-60
2022/04/28 02:35:49;;;;;;;3.90;3.67;;;;;;;;;;4953397;29;20215;-59
2022/04/28 02:38:16;;;;;;;3.73;3.53;;;;;;;;;;4953266;29;20207;-60
2022/04/28 02:40:43;;;;;;;3.90;3.57;;;;;;;;;;4953610;29;20266;-60
2022/04/28 02:43:12;;;;;;;4.13;3.90;;;;;;;;;;4953033;29;20203;-60
2022/04/28 02:45:39;;;;;;;3.90;3.60;;;;;;;;;;4953644;28;20695;-59
2022/04/28 02:48:06;;;;;;;4.10;3.80;;;;;;;;;;4952816;29;20207;-59
2022/04/28 02:50:33;;;;;;;4.27;3.90;;;;;;;;;;4953479;29;20215;-59
2022/04/28 02:53:00;;;;;;;4.97;3.87;;;;;;;;;;4952864;29;20574;-59
2022/04/28 02:55:27;;;;;;;4.63;4.00;;;;;;;;;;4953507;28;20199;-60
2022/04/28 02:57:54;;;;;;;9.07;3.60;;;;;;;;;;4952615;29;20217;-59
2022/04/28 03:00:23;;;;;;;3.93;3.63;;;;;;;;;;4951470;28;20586;-59
2022/04/28 03:02:50;;;;;;;4.53;4.13;;;;;;;;;;4950486;29;20262;-59
2022/04/28 03:05:17;;;;;;;4.60;4.20;;;;;;;;;;4953226;28;20231;-59
2022/04/28 03:10:51;;;;;;;4.00;3.60;;;;;;;;;;4932866;29;20319;-60
2022/04/28 03:13:19;;;;;;;5.00;3.80;;;;;;;;;;4933257;29;20247;-59
2022/04/28 03:15:47;;;;;;;4.10;3.80;;;;;;;;;;4931546;29;20242;-59
2022/04/28 03:18:14;;;;;;;4.50;4.10;;;;;;;;;;4932665;29;20200;-59
2022/04/28 03:20:42;;;;;;;5.17;4.00;;;;;;;;;;4931265;29;20729;-59
2022/04/28 03:23:11;;;;;;;4.50;4.10;;;;;;;;;;4926715;29;20219;-59
2022/04/28 03:25:38;;;;;;;3.87;3.53;;;;;;;;;;4931875;29;20658;-60
2022/04/28 03:28:05;;;;;;;4.37;4.00;;;;;;;;;;4931596;29;20216;-59
2022/04/28 03:30:32;;;;;;;4.17;3.77;;;;;;;;;;4932480;29;20210;-59
2022/04/28 03:33:01;;;;;;;4.00;3.60;;;;;;;;;;4931407;29;20207;-59
2022/04/28 03:35:28;;;;;;;4.47;3.90;;;;;;;;;;4931532;29;20215;-60
2022/04/28 03:37:55;;;;;;;3.67;3.37;;;;;;;;;;4932195;29;20670;-59
2022/04/28 03:40:22;;;;;;;4.17;3.63;;;;;;;;;;4931374;29;20227;-59
2022/04/28 03:42:49;;;;;;;3.73;3.50;;;;;;;;;;4931087;29;20204;-59
2022/04/28 03:45:17;;;;;;;4.07;3.83;;;;;;;;;;4929738;29;20589;-59
2022/04/28 03:47:44;;;;;;;4.90;3.87;;;;;;;;;;4930569;29;20706;-59
2022/04/28 03:50:12;;;;;;;3.73;3.43;;;;;;;;;;4930319;29;20204;-59
2022/04/28 03:52:40;;;;;;;4.83;3.60;;;;;;;;;;4930718;29;20303;-59
2022/04/28 03:55:09;;;;;;;3.70;3.40;;;;;;;;;;4930821;29;20204;-59
2022/04/28 03:57:36;;;;;;;4.10;3.70;;;;;;;;;;4930325;29;20699;-59
2022/04/28 04:00:03;;;;;;;3.80;3.50;;;;;;;;;;4930133;29;20710;-59
2022/04/28 04:02:30;;;;;;;4.50;3.77;;;;;;;;;;4930811;29;20211;-59
2022/04/28 04:04:58;;;;;;;5.13;4.33;;;;;;;;;;4930572;29;20231;-59
2022/04/28 04:07:29;;;;;;;7.27;5.23;;;;;;;;;;4930590;29;20219;-59
2022/04/28 04:09:56;;;;;;;18.47;8.77;;;;;;;;;;4946720;29;20354;-59
2022/04/28 04:12:25;;;;;;;11.10;6.83;;;;;;;;;;4947432;28;20896;-60
2022/04/28 04:14:52;;;;;;;8.13;6.17;;;;;;;;;;4948842;29;20223;-59
2022/04/28 04:17:19;;;;;;;8.63;6.00;;;;;;;;;;4949271;29;20199;-59
2022/04/28 04:19:46;;;;;;;8.00;5.40;;;;;;;;;;4949906;28;20203;-59
2022/04/28 04:22:13;;;;;;;9.53;5.30;;;;;;;;;;4950666;29;20212;-60
2022/04/28 04:24:41;;;;;;;5.73;4.83;;;;;;;;;;4950136;28;20294;-59
2022/04/28 04:27:09;;;;;;;8.33;5.07;;;;;;;;;;4949884;29;20210;-59
2022/04/28 04:29:36;;;;;;;5.03;4.60;;;;;;;;;;4949865;28;20638;-60
2022/04/28 04:32:18;;;;;;;6.47;5.20;;;;;;;;;;4950482;28;20236;-59
2022/04/28 04:34:45;;;;;;;6.67;5.33;;;;;;;;;;4949760;29;20199;-59
2022/04/28 04:37:12;;;;;;;5.00;4.53;;;;;;;;;;4949841;28;20242;-60
2022/04/28 04:39:40;;;;;;;5.83;5.10;;;;;;;;;;4949867;28;20270;-59
2022/04/28 04:42:09;;;;;;;6.03;5.07;;;;;;;;;;4948208;29;20227;-59
2022/04/28 04:44:36;;;;;;;5.57;4.97;;;;;;;;;;4949641;28;20207;-60
2022/04/28 04:47:04;;;;;;;7.77;4.63;;;;;;;;;;4947518;29;20203;-59
2022/04/28 04:49:31;;;;;;;6.93;5.20;;;;;;;;;;4947721;28;20278;-59
2022/04/28 04:51:58;;;;;;;6.00;5.50;;;;;;;;;;4948557;29;20218;-59
2022/04/28 04:54:25;;;;;;;6.20;5.60;;;;;;;;;;4948146;29;20207;-60
2022/04/28 04:56:52;;;;;;;6.83;5.67;;;;;;;;;;4949098;29;20211;-60
2022/04/28 04:59:20;;;;;;;7.60;5.90;;;;;;;;;;4948585;29;20678;-65
2022/04/28 05:01:47;;;;;;;10.30;6.10;;;;;;;;;;4949433;29;20227;-59
2022/04/28 05:04:14;;;;;;;7.90;6.10;;;;;;;;;;4948589;29;20285;-59
2022/04/28 05:06:41;;;;;;;8.17;6.03;;;;;;;;;;4949343;28;20512;-59
2022/04/28 05:09:08;;;;;;;6.87;6.17;;;;;;;;;;4949058;29;20230;-60
2022/04/28 05:11:35;;;;;;;6.70;6.10;;;;;;;;;;4949605;29;20657;-59
2022/04/28 05:14:02;;;;;;;9.93;6.30;;;;;;;;;;4949882;28;20215;-61
2022/04/28 05:16:31;;;;;;;8.20;6.63;;;;;;;;;;4950118;28;20593;-59
2022/04/28 05:18:58;;;;;;;8.60;6.80;;;;;;;;;;4949350;29;20218;-59
2022/04/28 05:21:25;;;;;;;9.27;6.47;;;;;;;;;;4948888;28;20223;-60
2022/04/28 05:23:52;;;;;;;7.47;6.20;;;;;;;;;;4946294;29;20580;-59
2022/04/28 05:26:19;;;;;;;9.43;6.67;;;;;;;;;;4950053;28;20219;-60
2022/04/28 05:28:47;;;;;;;6.17;5.57;;;;;;;;;;4949549;28;20215;-59
2022/04/28 05:31:14;;;;;;;10.97;7.13;;;;;;;;;;4948979;29;20743;-59
2022/04/28 05:36:31;;;;;;;7.27;6.30;;;;;;;;;;4934813;29;20218;-60
2022/04/28 05:38:58;;;;;;;7.47;6.57;;;;;;;;;;4950348;29;20215;-60
2022/04/28 05:41:26;;;;;;;7.87;6.53;;;;;;;;;;4949738;29;20290;-60
2022/04/28 05:46:38;;;;;;;7.77;6.77;;;;;;;;;;4949535;29;20205;-68
2022/04/28 05:49:07;;;;;;;7.33;6.00;;;;;;;;;;4948366;29;20278;-59
2022/04/28 05:51:35;;;;;;;7.80;5.93;;;;;;;;;;4949984;28;20199;-60
2022/04/28 05:54:02;;;;;;;6.97;6.23;;;;;;;;;;4950111;29;20729;-58
2022/04/28 05:56:29;;;;;;;10.37;6.53;;;;;;;;;;4950107;29;20214;-59
2022/04/28 05:58:56;;;;;;;9.43;7.17;;;;;;;;;;4950132;28;20297;-61
2022/04/28 06:01:23;;;;;;;9.20;6.60;;;;;;;;;;4950429;28;20314;-61
2022/04/28 06:03:50;;;;;;;6.90;6.20;;;;;;;;;;4952594;29;20214;-61
2022/04/28 06:06:19;;;;;;;7.87;6.90;;;;;;;;;;4954173;28;20234;-59
2022/04/28 06:08:46;;;;;;;7.17;6.43;;;;;;;;;;4953945;29;20656;-59
2022/04/28 06:11:13;;;;;;;7.30;6.57;;;;;;;;;;4954176;29;20269;-60
2022/04/28 06:13:40;;;;;;;8.20;6.87;;;;;;;;;;4945680;29;20286;-59
2022/04/28 06:16:07;;;;;;;7.17;6.43;;;;;;;;;;4934372;29;20220;-60
2022/04/28 06:18:34;;;;;;;7.63;6.83;;;;;;;;;;4934953;29;20211;-60
2022/04/28 06:21:01;;;;;;;7.17;6.47;;;;;;;;;;4943993;29;20226;-61
2022/04/28 06:23:29;;;;;;;11.70;7.57;;;;;;;;;;4953865;29;20382;-61
2022/04/28 06:25:56;;;;;;;8.70;7.23;;;;;;;;;;4953617;29;20215;-60
2022/04/28 06:28:23;;;;;;;8.85;7.18;;;;;;;;;;4952965;29;20218;-61
2022/04/28 06:30:50;;;;;;;11.10;7.55;;;;;;;;;;4953475;29;20203;-60
2022/04/28 06:33:18;;;;;;;7.60;6.78;;;;;;;;;;4953621;29;20278;-60
2022/04/28 06:35:45;;;;;;;8.55;7.18;;;;;;;;;;4953702;29;20345;-60
2022/04/28 06:38:12;;;;;;;7.97;7.25;;;;;;;;;;4953634;29;20203;-60
2022/04/28 06:40:41;;;;;;;8.82;7.93;;;;;;;;;;4952996;29;20877;-60
2022/04/28 06:43:08;;;;;;;10.38;7.65;;;;;;;;;;4953212;29;20215;-60
2022/04/28 06:45:36;;;;;;;8.68;7.20;;;;;;;;;;4953369;29;20286;-60
2022/04/28 06:48:03;;;;;;;10.40;7.22;;;;;;;;;;4953260;29;20278;-60
2022/04/28 06:50:30;;;;;;;7.22;6.45;;;;;;;;;;4953420;29;20215;-60
2022/04/28 06:52:57;;;;;;;6.90;6.20;;;;;;;;;;4953362;29;20211;-60
2022/04/28 06:55:24;;;;;;;8.45;6.35;;;;;;;;;;4949605;29;20672;-60
2022/04/28 06:57:53;;;;;;;9.82;7.30;;;;;;;;;;4952300;29;20219;-60
2022/04/28 07:00:20;;;;;;;8.07;6.35;;;;;;;;;;4951011;29;20265;-60
2022/04/28 07:02:47;;;;;;;7.75;6.82;;;;;;;;;;4938212;28;20706;-60
2022/04/28 07:05:14;;;;;;;9.52;6.63;;;;;;;;;;4942338;29;20223;-59
2022/04/28 07:07:41;;;;;;;7.53;5.55;;;;;;;;;;4947007;29;20305;-59
2022/04/28 07:10:09;;;;;;;6.65;5.95;;;;;;;;;;4952706;29;20238;-59
2022/04/28 07:12:36;;;;;;;6.20;5.70;;;;;;;;;;4952311;28;20222;-60
2022/04/28 07:15:05;;;;;;;8.38;7.07;;;;;;;;;;4952720;29;20239;-59
2022/04/28 07:17:32;;;;;;;6.68;5.78;;;;;;;;;;4950974;29;20575;-59
2022/04/28 07:19:59;;;;;;;8.60;6.47;;;;;;;;;;4952947;29;20265;-59
2022/04/28 07:22:26;;;;;;;7.57;5.68;;;;;;;;;;4952775;29;20231;-60
2022/04/28 07:24:53;;;;;;;6.75;6.05;;;;;;;;;;4952346;29;20749;-60
2022/04/28 07:27:20;;;;;;;6.10;5.55;;;;;;;;;;4952533;29;20210;-60
2022/04/28 07:29:47;;;;;;;6.55;5.60;;;;;;;;;;4952524;29;20262;-60
2022/04/28 07:32:16;;;;;;;6.13;5.53;;;;;;;;;;4940534;29;20255;-61
2022/04/28 07:34:43;;;;;;;5.75;5.28;;;;;;;;;;4951175;29;20294;-61
2022/04/28 07:37:10;;;;;;;5.50;5.00;;;;;;;;;;4951699;28;20277;-61
2022/04/28 07:39:37;;;;;;;6.10;5.60;;;;;;;;;;4951950;28;20211;-60
2022/04/28 07:42:04;;;;;;;7.88;5.22;;;;;;;;;;4951297;28;20231;-60
2022/04/28 07:44:31;;;;;;;5.30;4.80;;;;;;;;;;4951601;29;20273;-60
2022/04/28 07:46:58;;;;;;;6.70;6.10;;;;;;;;;;4950974;29;20207;-61
2022/04/28 07:49:27;;;;;;;6.40;5.50;;;;;;;;;;4951513;29;20215;-61
2022/04/28 07:51:54;;;;;;;5.43;5.03;;;;;;;;;;4950947;29;20391;-61
2022/04/28 07:54:21;;;;;;;5.88;4.40;;;;;;;;;;4951275;28;20215;-61
2022/04/28 07:56:48;;;;;;;4.97;4.57;;;;;;;;;;4951000;28;20210;-61
2022/04/28 07:59:15;;;;;;;5.35;4.82;;;;;;;;;;4951210;29;20207;-61
2022/04/28 08:01:42;;;;;;;5.03;4.72;;;;;;;;;;4951188;29;20290;-61
2022/04/28 08:04:09;;;;;;;5.25;4.95;;;;;;;;;;4949409;29;20203;-61
2022/04/28 08:06:37;;;;;;;5.35;4.85;;;;;;;;;;4949067;29;20244;-61
2022/04/28 08:09:04;;;;;;;4.95;4.13;;;;;;;;;;4954220;28;20640;-60
2022/04/28 08:11:32;;;;;;;4.72;4.43;;;;;;;;;;4951373;29;20270;-60
2022/04/28 08:13:59;;;;;;;4.50;4.20;;;;;;;;;;4952020;28;20211;-60
2022/04/28 08:16:26;;;;;;;4.70;4.40;;;;;;;;;;4945574;28;20704;-61
2022/04/28 08:18:54;;;;;;;4.70;3.95;;;;;;;;;;4953544;28;20215;-60
2022/04/28 08:21:21;;;;;;;5.30;4.63;;;;;;;;;;4954559;28;20253;-60
2022/04/28 08:23:50;;;;;;;4.68;4.30;;;;;;;;;;4969497;28;20587;-61
2022/04/28 08:26:17;;;;;;;4.90;4.50;;;;;;;;;;4967365;28;20301;-61
2022/04/28 08:28:44;;;;;;;4.40;4.10;;;;;;;;;;4950733;29;20226;-61
2022/04/28 08:31:11;;;;;;;5.15;4.00;;;;;;;;;;4952052;28;20725;-61
2022/04/28 08:33:38;;;;;;;4.60;4.20;;;;;;;;;;4969936;28;20214;-61
2022/04/28 08:36:05;;;;;;;3.83;3.63;;;;;;;;;;4967840;28;20207;-61
2022/04/28 08:38:32;;;;;;;3.90;3.55;;;;;;;;;;4955150;28;20776;-60
2022/04/28 08:41:02;;;;;;;3.97;3.67;;;;;;;;;;4951515;28;20640;-61
2022/04/28 08:43:31;;;;;;;3.88;3.67;;;;;;;;;;4951432;28;20237;-61
2022/04/28 08:48:47;;;;;;;3.53;2.90;;;;;;;;;;4958196;28;20288;-61
2022/04/28 08:51:14;;;;;;;2.97;2.88;;;;;;;;;;4950433;29;20371;-61
2022/04/28 08:53:42;;;;;;;2.92;2.78;;;;;;;;;;4954611;28;20211;-61
2022/04/28 08:56:10;;;;;;;2.30;2.20;;;;;;;;;;4962053;28;20202;-60
2022/04/28 08:58:38;;;;;;;2.60;2.50;;;;;;;;;;4943181;29;20219;-59
2022/04/28 09:01:05;;;;;;;2.80;2.70;;;;;;;;;;4964332;28;20814;-60
2022/04/28 09:03:32;;;;;;;2.28;2.17;;;;;;;;;;4957324;28;20290;-58
2022/04/28 09:05:59;;;;;;;2.90;2.70;;;;;;;;;;4950095;29;20238;-60
2022/04/28 09:08:27;;;;;;;2.30;2.17;;;;;;;;;;4950446;28;20323;-62
2022/04/28 09:10:54;;;;;;;1.95;1.85;;;;;;;;;;4949624;28;20261;-62
2022/04/28 09:16:08;;;;;;;2.50;2.40;;;;;;;;;;4938569;29;20249;-62
2022/04/28 09:18:35;;;;;;;2.30;2.20;;;;;;;;;;4948403;29;20355;-63
2022/04/28 09:21:02;;;;;;;2.17;2.08;;;;;;;;;;4949864;29;20211;-63
2022/04/28 09:23:30;;;;;;;2.35;2.17;;;;;;;;;;4949600;29;20235;-62
2022/04/28 09:25:58;;;;;;;2.50;2.40;;;;;;;;;;4949647;29;20222;-60
2022/04/28 09:28:26;;;;;;;1.50;1.48;;;;;;;;;;4949193;29;20646;-63
2022/04/28 09:30:53;;;;;;;1.48;1.48;;;;;;;;;;4949197;29;20305;-62
2022/04/28 09:33:22;;;;;;;1.80;1.70;;;;;;;;;;4951638;28;20294;-60
2022/04/28 09:35:50;;;;;;;1.80;1.75;;;;;;;;;;4946306;28;20298;-61
2022/04/28 09:38:18;;;;;;;2.40;2.22;;;;;;;;;;4944346;28;20214;-60
2022/04/28 09:43:32;;;;;;;2.33;2.08;;;;;;;;;;4947959;28;20669;-60
2022/04/28 09:46:00;;;;;;;2.20;2.10;;;;;;;;;;4948978;28;20213;-61
2022/04/28 09:48:29;;;;;;;2.15;2.05;;;;;;;;;;4948966;28;20239;-61
2022/04/28 09:51:00;;;;;;;1.58;1.58;;;;;;;;;;4949016;29;20223;-60
2022/04/28 09:53:30;;;;;;;1.88;1.83;;;;;;;;;;4948038;28;20199;-60
2022/04/28 09:55:58;;;;;;;2.10;2.00;;;;;;;;;;4949262;28;20211;-61
2022/04/28 09:58:27;;;;;;;1.80;1.77;;;;;;;;;;4948716;29;20580;-61
2022/04/28 10:01:00;;;;;;;2.13;2.03;;;;;;;;;;4948868;28;20297;-63
2022/04/28 10:03:28;;;;;;;1.83;1.83;;;;;;;;;;4948241;29;20233;-62
2022/04/28 10:05:57;;;;;;;2.40;1.90;;;;;;;;;;4948359;28;20353;-60
2022/04/28 10:08:25;;;;;;;1.60;1.60;;;;;;;;;;4948036;29;20353;-61
2022/04/28 10:10:54;;;;;;;1.90;1.77;;;;;;;;;;4949141;29;20218;-62
2022/04/28 10:13:21;;;;;;;1.65;1.65;;;;;;;;;;4948781;29;20214;-64
2022/04/28 10:15:49;;;;;;;2.03;1.92;;;;;;;;;;4951382;28;20670;-63
2022/04/28 10:18:19;;;;;;;2.47;2.38;;;;;;;;;;4957957;28;20279;-64
2022/04/28 10:20:47;;;;;;;4.55;2.00;;;;;;;;;;4948994;29;20361;-63
2022/04/28 10:23:15;;;;;;;2.00;1.90;;;;;;;;;;4948679;29;20579;-63
2022/04/28 10:34:13;;;;;;;1.67;1.58;;;;;;;;;;4948543;29;20303;-63
2022/04/28 10:36:54;;;;;;;1.90;1.80;;;;;;;;;;4947549;28;20214;-62
2022/04/28 10:39:33;;;;;;;2.00;1.90;;;;;;;;;;4948823;29;20223;-62
2022/04/28 10:42:00;;;;;;;1.70;1.60;;;;;;;;;;4949156;29;20701;-63
2022/04/28 10:44:32;;;;;;;1.63;1.63;;;;;;;;;;4948745;29;20644;-63
2022/04/28 10:47:02;;;;;;;1.65;1.65;;;;;;;;;;4948967;28;20659;-63
2022/04/28 10:49:37;;;;;;;1.83;1.73;;;;;;;;;;4952123;29;20403;-63
2022/04/28 10:52:04;;;;;;;1.45;1.45;;;;;;;;;;4952143;29;20230;-64
2022/04/28 10:54:44;;;;;;;1.17;1.17;;;;;;;;;;4933407;29;20220;-62
2022/04/28 10:57:13;;;;;;;1.80;1.70;;;;;;;;;;4934676;29;20314;-64
2022/04/28 10:59:42;;;;;;;1.80;1.80;;;;;;;;;;4952609;29;20588;-64
2022/04/28 11:02:27;;;;;;;1.85;1.75;;;;;;;;;;4952493;29;20350;-59
2022/04/28 11:05:01;;;;;;;1.45;1.45;;;;;;;;;;4952187;28;20214;-64
2022/04/28 11:07:30;;;;;;;1.77;1.70;;;;;;;;;;4951882;29;20360;-62
2022/04/28 11:09:59;;;;;;;1.50;1.50;;;;;;;;;;4952476;29;20251;-63
2022/04/28 11:12:27;;;;;;;1.77;1.67;;;;;;;;;;4952411;29;20603;-62
2022/04/28 11:15:02;;;;;;;1.33;1.33;;;;;;;;;;4951555;28;20219;-62
2022/04/28 11:17:30;;;;;;;2.40;1.73;;;;;;;;;;4952493;29;20298;-59
2022/04/28 11:20:01;;;;;;;1.85;1.85;;;;;;;;;;4952301;28;20206;-65
2022/04/28 11:22:29;;;;;;;1.70;1.70;;;;;;;;;;4947241;29;20978;-69
2022/04/28 11:24:56;;;;;;;1.58;1.48;;;;;;;;;;4952374;28;20546;-63
2022/04/28 11:27:24;;;;;;;1.60;1.60;;;;;;;;;;4950774;29;20838;-62
2022/04/28 11:29:52;;;;;;;1.83;1.75;;;;;;;;;;4949912;29;20274;-63
2022/04/28 11:32:19;;;;;;;1.90;1.73;;;;;;;;;;4950577;29;20620;-65
2022/04/28 11:34:48;;;;;;;1.70;1.70;;;;;;;;;;4951548;29;20247;-62
2022/04/28 11:37:17;;;;;;;2.05;1.85;;;;;;;;;;4939028;29;20271;-61
2022/04/28 11:39:44;;;;;;;1.85;1.83;;;;;;;;;;4932300;29;20701;-62
2022/04/28 11:42:12;;;;;;;2.13;2.03;;;;;;;;;;4931464;29;20940;-62
2022/04/28 11:44:45;;;;;;;4.43;1.90;;;;;;;;;;4932307;29;20226;-63
2022/04/28 11:47:12;;;;;;;1.55;1.55;;;;;;;;;;4932151;29;20223;-62
2022/04/28 11:49:42;;;;;;;1.75;1.75;;;;;;;;;;4947373;29;20217;-62
2022/04/28 11:52:21;;;;;;;1.80;1.80;;;;;;;;;;4951554;29;20219;-63
2022/04/28 11:54:52;;;;;;;1.75;1.65;;;;;;;;;;4951360;29;20853;-64
2022/04/28 11:57:21;;;;;;;1.90;1.80;;;;;;;;;;4943833;28;20203;-63
2022/04/28 11:59:48;;;;;;;2.03;1.92;;;;;;;;;;4947833;28;20685;-63
2022/04/28 12:02:28;;;;;;;3.05;1.85;;;;;;;;;;4948349;28;20673;-63
2022/04/28 12:04:56;;;;;;;1.63;1.63;;;;;;;;;;4949572;28;20216;-63
2022/04/28 12:07:27;;;;;;;4.13;1.70;;;;;;;;;;4949284;28;20827;-63
2022/04/28 12:15:25;;;;;;;1.98;1.88;;;;;;;;;;4967578;28;20225;-63
2022/04/28 12:20:50;;;;;;;1.80;1.75;;;;;;;;;;4949723;29;20708;-63
2022/04/28 12:23:29;;;;;;;2.10;2.00;;;;;;;;;;4949543;29;20689;-63
2022/04/28 12:25:58;;;;;;;1.80;1.70;;;;;;;;;;4950750;28;20210;-63
2022/04/28 12:28:30;;;;;;;1.48;1.48;;;;;;;;;;4953022;28;20215;-62
2022/04/28 12:30:57;;;;;;;3.40;2.35;;;;;;;;;;4949131;29;20225;-63
2022/04/28 12:33:24;;;;;;;1.65;1.65;;;;;;;;;;4949641;29;20208;-63
2022/04/28 12:35:51;;;;;;;2.75;2.08;;;;;;;;;;4958543;28;20241;-62
2022/04/28 12:38:26;;;;;;;1.92;1.90;;;;;;;;;;4953802;28;20203;-62
2022/04/28 12:40:55;;;;;;;1.60;1.60;;;;;;;;;;4949611;29;20214;-63
2022/04/28 12:43:38;;;;;;;1.73;1.63;;;;;;;;;;4949137;29;20235;-63
2022/04/28 12:46:06;;;;;;;2.08;1.70;;;;;;;;;;4965353;28;20213;-62
2022/04/28 12:48:34;;;;;;;1.70;1.70;;;;;;;;;;4968697;28;20226;-62
2022/04/28 12:51:17;;;;;;;2.92;1.75;;;;;;;;;;4968453;28;20880;-63
2022/04/28 12:53:46;;;;;;;3.35;1.95;;;;;;;;;;4935504;28;20242;-63
2022/04/28 12:56:16;;;;;;;1.77;1.77;;;;;;;;;;4940542;28;20267;-62
2022/04/28 12:58:44;;;;;;;1.83;1.73;;;;;;;;;;4943134;29;20219;-62
2022/04/28 13:01:12;;;;;;;1.80;1.70;;;;;;;;;;4944923;28;20737;-62
2022/04/28 13:03:40;;;;;;;1.85;1.75;;;;;;;;;;4962506;28;20222;-63
2022/04/28 13:06:08;;;;;;;2.33;2.03;;;;;;;;;;4952022;28;20250;-62
2022/04/28 13:08:35;;;;;;;2.03;1.92;;;;;;;;;;4957971;28;20247;-63
2022/04/28 13:11:02;;;;;;;2.00;2.00;;;;;;;;;;4948609;28;20269;-63
2022/04/28 13:13:31;;;;;;;2.25;2.15;;;;;;;;;;4948958;29;20218;-62
2022/04/28 13:15:58;;;;;;;1.50;1.50;;;;;;;;;;4948498;28;20207;-64
2022/04/28 13:18:25;;;;;;;1.95;1.85;;;;;;;;;;4948826;28;20215;-62
2022/04/28 13:20:52;;;;;;;1.83;1.73;;;;;;;;;;4949095;28;20222;-63
2022/04/28 13:23:19;;;;;;;2.00;1.90;;;;;;;;;;4948505;28;20833;-62
2022/04/28 13:25:46;;;;;;;3.30;1.80;;;;;;;;;;4946105;28;20219;-58
2022/04/28 13:28:13;;;;;;;2.58;1.77;;;;;;;;;;4947935;28;20214;-62
2022/04/28 13:30:41;;;;;;;2.08;1.98;;;;;;;;;;4948348;29;20665;-64
2022/04/28 13:33:10;;;;;;;2.05;1.98;;;;;;;;;;4948009;29;20258;-62
2022/04/28 13:35:37;;;;;;;1.90;1.80;;;;;;;;;;4936403;28;20754;-61
2022/04/28 13:38:08;;;;;;;1.83;1.65;;;;;;;;;;4940698;28;20215;-67
2022/04/28 13:40:35;;;;;;;2.10;2.00;;;;;;;;;;4947225;29;20206;-62
2022/04/28 13:43:02;;;;;;;1.95;1.95;;;;;;;;;;4948228;29;20231;-62
2022/04/28 13:45:29;;;;;;;2.08;2.00;;;;;;;;;;4948132;28;20681;-63
2022/04/28 13:47:58;;;;;;;1.70;1.60;;;;;;;;;;4948256;29;20207;-65
2022/04/28 13:50:25;;;;;;;1.70;1.70;;;;;;;;;;4947936;28;20257;-63
2022/04/28 13:52:52;;;;;;;2.28;2.17;;;;;;;;;;4947772;28;20318;-61
2022/04/28 13:55:19;;;;;;;2.30;1.98;;;;;;;;;;4946121;29;20207;-65
2022/04/28 13:57:47;;;;;;;1.60;1.60;;;;;;;;;;4948029;29;20314;-61
2022/04/28 14:00:15;;;;;;;2.00;1.90;;;;;;;;;;4939930;28;20211;-62
2022/04/28 14:02:42;;;;;;;1.63;1.63;;;;;;;;;;4945949;29;20215;-61
2022/04/28 14:05:11;;;;;;;1.38;1.38;;;;;;;;;;4948108;29;20314;-60
2022/04/28 14:07:40;;;;;;;1.50;1.45;;;;;;;;;;4948083;29;20207;-60
2022/04/28 14:10:07;;;;;;;1.85;1.75;;;;;;;;;;4946659;29;20235;-60
2022/04/28 14:12:35;;;;;;;2.05;1.80;;;;;;;;;;4939121;29;20207;-59
2022/04/28 14:15:02;;;;;;;1.73;1.73;;;;;;;;;;4950536;28;20210;-60
2022/04/28 14:17:29;;;;;;;1.80;1.80;;;;;;;;;;4946401;29;20203;-60
2022/04/28 14:19:57;;;;;;;1.85;1.75;;;;;;;;;;4947750;28;20211;-60
2022/04/28 14:22:25;;;;;;;1.90;1.90;;;;;;;;;;4947975;28;20234;-61
2022/04/28 14:24:53;;;;;;;2.13;1.80;;;;;;;;;;4948775;28;20227;-61
2022/04/28 14:27:20;;;;;;;2.10;2.00;;;;;;;;;;4950403;29;20211;-61
2022/04/28 14:29:47;;;;;;;1.80;1.70;;;;;;;;;;4951975;29;20218;-60
2022/04/28 14:32:14;;;;;;;1.83;1.73;;;;;;;;;;4951153;29;20210;-60
2022/04/28 14:34:42;;;;;;;1.90;1.80;;;;;;;;;;4951355;28;20218;-60
2022/04/28 14:37:09;;;;;;;2.15;1.95;;;;;;;;;;4950669;29;20219;-60
2022/04/28 14:39:38;;;;;;;2.50;2.40;;;;;;;;;;4950593;29;20269;-60
2022/04/28 14:42:06;;;;;;;1.75;1.67;;;;;;;;;;4949073;29;20207;-60
2022/04/28 14:44:33;;;;;;;2.15;2.05;;;;;;;;;;4951570;28;20238;-60
2022/04/28 14:47:01;;;;;;;2.00;1.90;;;;;;;;;;4951624;29;20211;-60
2022/04/28 14:52:24;;;;;;;2.28;2.03;;;;;;;;;;4951359;29;20221;-60
2022/04/28 14:54:56;;;;;;;3.22;2.17;;;;;;;;;;4951276;29;20572;-60
2022/04/28 14:57:24;;;;;;;1.90;1.90;;;;;;;;;;4951457;29;20306;-60
2022/04/28 14:59:51;;;;;;;2.28;2.10;;;;;;;;;;4950899;28;20266;-59
2022/04/28 15:02:19;;;;;;;1.60;1.60;;;;;;;;;;4951541;29;20223;-60
2022/04/28 15:04:46;;;;;;;1.98;1.88;;;;;;;;;;4951788;29;20230;-62
2022/04/28 15:07:14;;;;;;;1.85;1.40;;;;;;;;;;4944184;29;20203;-62
2022/04/28 15:09:41;;;;;;;1.85;1.75;;;;;;;;;;4939499;29;20293;-62
2022/04/28 15:12:10;;;;;;;1.77;1.75;;;;;;;;;;4951565;29;20340;-61
2022/04/28 15:14:38;;;;;;;1.90;1.80;;;;;;;;;;4950799;28;20717;-64
2022/04/28 15:17:18;;;;;;;1.90;1.80;;;;;;;;;;4951259;29;20210;-62
2022/04/28 15:19:45;;;;;;;1.88;1.77;;;;;;;;;;4945137;29;20721;-62
2022/04/28 15:22:12;;;;;;;3.65;1.80;;;;;;;;;;4950904;29;20211;-62
2022/04/28 15:24:39;;;;;;;1.75;1.65;;;;;;;;;;4950983;29;20309;-63
2022/04/28 15:27:06;;;;;;;2.17;2.08;;;;;;;;;;4948746;29;20286;-65
2022/04/28 15:29:35;;;;;;;1.50;1.50;;;;;;;;;;4950328;29;20576;-62
2022/04/28 15:32:02;;;;;;;1.30;1.30;;;;;;;;;;4949124;29;20265;-62